Shocks Mills, Pennsylvania
Current Conditions -  °F | °C
As of 4:56 PM on Thursday 27 Nov 2014 (Local Time) from KMDT Reporting Station
Light Snow Light Snow  
Wind Chill: 35°   Ceiling: 4500
Heat Index: 35°   Visibility: 9mi
Dew Point: 29°   Wind: 3mph
Humidity: 78%   Direction: 310°NW
Pressure: 30.07"   Gusts: NA
Location:  40.0731°N, 76.571°W
Report Text: KMDT 272156Z 31003KT 9SM -SN FEW025 BKN045 OVC070 02/M02 A3007 RMK AO2 SNB49 SLP187 VIS LWR SW-NW P0000 T00171017
Loading
Personal Weather Stations






























Interactive Weather Map New forecast layout! Learn more

10-Day Weather Forecast

Advertisements
Track Severe Weather on mobile